Toledo, OH

3:35 PM EST on February 10, 2016 (GMT -0500)
Lambertville | | Change Station
CLOSE
Current Station
Airport
Location: Lambertville,
Elevation: 666 ft
Nearby Weather Stations

Elev 666 ft 41.74 °N, 83.66 °W | Updated 20 minutes ago

Overcast
Overcast
22 °F
Feels Like 12 °F
N
8
Wind Variable Wind from West
Gusts 16 mph

Today
High -- | Low -- °F
--% Chance of Precip.
Yesterday
High -- | Low -- °F
Precip. -- in
Pressure 29.87 in
Visibility 10.0 miles
Clouds Scattered Clouds 2400 ft
Mostly Cloudy 3000 ft
Overcast 4500 ft
Windchill 12 °F
Dew Point 13 °F
Humidity 70%
Rainfall 0.00 in
Snow Depth Not available.
7:37 AM 6:01 PM
Waxing Crescent, 7% visible
METAR KDUH 102015Z AUTO 28007G14KT 10SM SCT024 BKN030 OVC045 M06/M10 A2987 RMK AO2 T10581105
Pressure 29.87 in
Visibility 10.0 miles
Clouds Scattered Clouds 2400 ft
Mostly Cloudy 3000 ft
Overcast 4500 ft
Windchill 12 °F
Dew Point 13 °F
Humidity 70%
Rainfall 0.00 in
Snow Depth Not available.
7:37 AM 6:01 PM
Waxing Crescent, 7% visible
METAR KDUH 102015Z AUTO 28007G14KT 10SM SCT024 BKN030 OVC045 M06/M10 A2987 RMK AO2 T10581105

10-Day Weather Forecast

Almanac

Astronomy

Feb. 10, 2016 Rise Set
Actual Time
Civil Twilight
Nautical Twilight
Astronomical Twilight
Moon
Length of Visible Light
Length of Day
Tomorrow will be .
, % of the Moon is Illuminated

Today's Extremes

State Highs State Lows

Community

WunderPhotos

Upload Photos

1,891,943 photos uploaded!

WunderBlog® & News

Nearby

Air Quality

  Air Quality AQ Index Pollutant
Not available.

Snow Depth

Station Depth Elevation

Earthquake Activity

City Distance Mag. Time & Date
Minimum magnitude displayed is 2.5.

Coastal Water Temperatures

Place Temperature

Stations

Nearby Weather Stations

Station Location Temp. Windchill Dew Point Humidity Wind Precip. Elev Updated Type
                   

Watches & Warnings

There are currently no watches in effect.